Time;durP1;ratioP1;P1;durP2;ratioP2;P2;SDS_P1;SDS_P2;PMS_P1;PMS_P2;Temp;Humidity;BMP_temperature;BMP_pressure;BME280_temperature;BME280_humidity;BME280_pressure;Samples;Min_cycle;Max_cycle;Signal;HPM_P1;HPM_P2
2021/01/26 00:00:08;;;;;;;31.52;19.13;;;2.80;99.90;;;;;;5020264;28;20041;-82
2021/01/26 00:02:34;;;;;;;34.33;18.98;;;2.80;99.90;;;;;;5003964;28;20082;-85
2021/01/26 00:05:02;;;;;;;35.38;18.95;;;2.90;99.90;;;;;;5008450;28;20466;-87
2021/01/26 00:07:29;;;;;;;35.78;18.23;;;2.90;99.90;;;;;;5007876;28;20478;-84
2021/01/26 00:09:55;;;;;;;33.55;19.17;;;2.90;99.90;;;;;;5009509;28;20078;-84
2021/01/26 00:12:23;;;;;;;30.75;15.48;;;2.90;99.90;;;;;;5017534;28;20057;-85
2021/01/26 00:14:49;;;;;;;36.67;18.23;;;3.00;99.90;;;;;;5005402;28;20061;-84
2021/01/26 00:17:16;;;;;;;30.92;17.95;;;3.00;99.90;;;;;;5017443;28;20077;-84
2021/01/26 00:19:43;;;;;;;32.35;18.08;;;3.10;99.90;;;;;;5012838;28;20052;-83
2021/01/26 00:25:35;;;;;;;35.72;18.40;;;3.10;99.90;;;;;;5016912;28;20053;-87
2021/01/26 00:28:02;;;;;;;34.47;17.77;;;3.10;99.90;;;;;;5008780;28;20060;-82
2021/01/26 00:30:31;;;;;;;28.20;17.05;;;3.10;99.90;;;;;;5015942;28;20046;-84
2021/01/26 00:32:59;;;;;;;37.40;18.52;;;3.10;99.90;;;;;;5004939;28;20041;-81
2021/01/26 00:35:28;;;;;;;34.20;17.30;;;3.10;99.90;;;;;;5011206;28;20046;-79
2021/01/26 00:37:55;;;;;;;32.78;16.98;;;3.10;99.90;;;;;;5008827;28;20058;-82
2021/01/26 00:40:22;;;;;;;33.03;18.00;;;3.10;99.90;;;;;;5012685;28;20180;-81
2021/01/26 00:42:49;;;;;;;34.75;18.85;;;3.10;99.90;;;;;;5012610;28;20180;-81
2021/01/26 00:45:17;;;;;;;29.42;15.82;;;3.10;99.90;;;;;;5011574;28;20065;-81
2021/01/26 00:47:46;;;;;;;33.63;17.55;;;3.10;99.90;;;;;;5001797;28;20050;-83
2021/01/26 00:50:13;;;;;;;32.30;16.95;;;3.10;99.90;;;;;;4997755;28;20536;-82
2021/01/26 00:52:40;;;;;;;26.55;16.98;;;3.10;99.90;;;;;;4998969;28;20093;-83
2021/01/26 00:55:07;;;;;;;29.45;17.33;;;3.10;99.90;;;;;;4997425;28;20271;-83
2021/01/26 00:57:34;;;;;;;29.80;17.10;;;3.20;99.90;;;;;;4997494;28;20112;-81
2021/01/26 01:00:01;;;;;;;27.08;15.95;;;3.20;99.90;;;;;;5001543;28;20047;-85
2021/01/26 01:02:28;;;;;;;27.52;16.50;;;3.20;99.90;;;;;;5006142;28;20039;-82
2021/01/26 01:04:54;;;;;;;26.80;16.23;;;3.20;99.90;;;;;;5005366;28;20093;-82
2021/01/26 01:07:20;;;;;;;32.22;18.58;;;3.30;99.90;;;;;;5009449;28;20046;-83
2021/01/26 01:09:47;;;;;;;31.90;19.05;;;3.30;99.90;;;;;;5009033;28;20070;-82
2021/01/26 01:12:13;;;;;;;32.83;16.80;;;3.30;99.90;;;;;;5007996;28;20051;-83
2021/01/26 01:14:40;;;;;;;32.08;17.48;;;3.30;99.90;;;;;;5006588;28;20061;-83
2021/01/26 01:17:08;;;;;;;29.98;17.13;;;3.30;99.90;;;;;;5007935;28;20085;-82
2021/01/26 01:19:35;;;;;;;30.67;16.90;;;3.30;99.90;;;;;;5007597;28;20077;-82
2021/01/26 01:22:01;;;;;;;28.85;16.95;;;3.30;99.90;;;;;;5006635;28;20074;-81
2021/01/26 01:24:27;;;;;;;26.23;16.63;;;3.30;99.90;;;;;;5008766;28;20050;-82
2021/01/26 01:26:54;;;;;;;26.67;16.85;;;3.30;99.90;;;;;;5008455;28;20053;-83
2021/01/26 01:29:20;;;;;;;33.45;16.35;;;3.30;99.90;;;;;;5007993;28;20100;-81
2021/01/26 01:31:46;;;;;;;30.25;16.67;;;3.30;99.90;;;;;;5009170;28;20065;-82
2021/01/26 01:34:14;;;;;;;25.60;14.38;;;3.30;99.90;;;;;;5008186;28;20061;-82
2021/01/26 01:36:40;;;;;;;31.25;13.95;;;3.40;99.90;;;;;;5008593;28;20053;-82
2021/01/26 01:39:08;;;;;;;26.63;14.50;;;3.40;99.90;;;;;;5008389;28;20057;-82
2021/01/26 01:41:37;;;;;;;24.92;15.00;;;3.40;99.90;;;;;;5042163;23;20045;-80
2021/01/26 01:44:04;;;;;;;23.77;13.55;;;3.40;99.90;;;;;;5032854;28;20056;-80
2021/01/26 01:46:35;;;;;;;22.40;13.18;;;3.40;99.90;;;;;;5019547;28;20093;-80
2021/01/26 01:49:04;;;;;;;22.50;12.70;;;3.40;99.90;;;;;;5019219;28;20057;-80
2021/01/26 01:51:35;;;;;;;30.45;15.02;;;3.40;99.90;;;;;;5019583;28;20069;-79
2021/01/26 01:54:06;;;;;;;24.30;14.70;;;3.40;99.90;;;;;;5019115;28;20418;-78
2021/01/26 01:56:39;;;;;;;28.50;14.00;;;3.40;99.90;;;;;;5018962;28;20109;-80
2021/01/26 01:59:09;;;;;;;22.90;13.68;;;3.30;99.90;;;;;;5020998;28;20136;-80
2021/01/26 02:01:36;;;;;;;25.65;13.82;;;3.30;99.90;;;;;;5020421;28;20120;-80
2021/01/26 02:04:07;;;;;;;26.10;14.07;;;3.30;99.90;;;;;;5019628;28;20140;-79
2021/01/26 02:06:37;;;;;;;21.00;12.05;;;3.30;99.90;;;;;;5020355;28;20136;-79
2021/01/26 02:09:06;;;;;;;28.50;15.35;;;3.20;99.90;;;;;;5019433;28;20088;-79
2021/01/26 02:11:34;;;;;;;24.13;12.07;;;3.20;99.90;;;;;;5015895;28;20128;-80
2021/01/26 02:14:01;;;;;;;27.02;14.07;;;3.20;99.90;;;;;;5015868;28;20133;-80
2021/01/26 02:16:44;;;;;;;22.27;12.18;;;3.20;99.90;;;;;;5015118;28;20077;-79
2021/01/26 02:19:17;;;;;;;;;;;3.20;99.90;;;;;;5015988;28;20545;-81
2021/01/26 02:22:32;;;;;;;25.63;14.10;;;3.20;99.90;;;;;;5015813;28;19975;-81
2021/01/26 02:25:22;;;;;;;24.75;14.30;;;3.10;99.90;;;;;;5014400;28;20159;-80
2021/01/26 02:28:25;;;;;;;23.77;11.27;;;3.10;99.90;;;;;;5019375;28;20148;-81
2021/01/26 02:31:17;;;;;;;28.20;12.90;;;3.20;99.90;;;;;;5021270;28;20528;-79
2021/01/26 02:34:14;;;;;;;22.90;12.20;;;3.20;99.90;;;;;;5021293;28;20089;-80
2021/01/26 02:37:06;;;;;;;24.83;13.60;;;3.20;99.90;;;;;;5019108;28;20057;-79
2021/01/26 02:39:36;;;;;;;23.90;10.90;;;3.20;99.90;;;;;;5018445;28;20132;-78
2021/01/26 02:42:17;;;;;;;23.80;12.18;;;3.20;99.90;;;;;;5018996;28;20078;-79
2021/01/26 02:44:55;;;;;;;24.42;12.55;;;3.20;99.90;;;;;;5021704;28;20125;-79
2021/01/26 02:47:31;;;;;;;25.42;14.02;;;3.20;99.90;;;;;;5020558;28;20088;-79
2021/01/26 02:50:07;;;;;;;25.88;13.75;;;3.20;99.90;;;;;;5020855;28;20078;-80
2021/01/26 02:52:39;;;;;;;22.70;13.13;;;3.20;99.90;;;;;;5020068;28;20092;-79
2021/01/26 02:55:14;;;;;;;20.70;10.95;;;3.20;99.90;;;;;;5018268;28;20149;-79
2021/01/26 02:57:47;;;;;;;18.17;11.13;;;3.20;99.90;;;;;;5017380;28;20060;-78
2021/01/26 03:00:17;;;;;;;27.42;14.55;;;3.30;99.90;;;;;;5018072;28;20467;-79
2021/01/26 03:02:53;;;;;;;24.48;12.55;;;3.30;99.90;;;;;;5018418;28;20073;-78
2021/01/26 03:05:24;;;;;;;19.75;12.63;;;3.30;99.90;;;;;;5017893;28;20101;-80
2021/01/26 03:07:55;;;;;;;25.10;12.77;;;3.20;99.90;;;;;;5016657;28;20107;-79
2021/01/26 03:10:28;;;;;;;28.88;13.18;;;3.20;99.90;;;;;;5018295;28;20077;-79
2021/01/26 03:12:57;;;;;;;;;;;3.20;99.90;;;;;;5018037;28;20089;-79
2021/01/26 03:15:28;;;;;;;23.50;11.45;;;3.20;99.90;;;;;;5016164;28;19979;-79
2021/01/26 03:17:59;;;;;;;27.13;13.68;;;3.10;99.90;;;;;;5015077;28;20177;-79
2021/01/26 03:20:30;;;;;;;23.23;11.18;;;3.20;99.90;;;;;;5016085;28;20133;-79
2021/01/26 03:23:01;;;;;;;21.10;11.50;;;3.20;99.90;;;;;;5013739;28;20152;-79
2021/01/26 03:25:30;;;;;;;27.13;12.10;;;3.20;99.90;;;;;;5014652;28;20144;-78
2021/01/26 03:28:01;;;;;;;24.27;11.50;;;3.20;99.90;;;;;;5014618;28;20470;-79
2021/01/26 03:30:32;;;;;;;21.98;12.48;;;3.30;99.90;;;;;;5015826;28;20526;-80
2021/01/26 03:33:04;;;;;;;25.52;12.93;;;3.30;99.90;;;;;;5022008;28;20081;-80
2021/01/26 03:35:32;;;;;;;24.63;13.02;;;3.30;99.90;;;;;;5021364;28;20085;-80
2021/01/26 03:38:05;;;;;;;24.85;13.10;;;3.30;99.90;;;;;;5018266;28;20045;-81
2021/01/26 03:40:32;;;;;;;26.40;12.43;;;3.30;99.90;;;;;;5019378;28;20136;-81
2021/01/26 03:42:59;;;;;;;21.67;12.43;;;3.30;99.90;;;;;;5019310;28;20113;-79
2021/01/26 03:45:25;;;;;;;19.75;12.45;;;3.40;99.90;;;;;;5018673;28;20081;-80
2021/01/26 03:48:02;;;;;;;23.85;11.82;;;3.40;99.90;;;;;;5019030;28;20113;-80
2021/01/26 03:50:51;;;;;;;18.48;12.27;;;3.40;99.90;;;;;;5019099;28;20046;-80
2021/01/26 03:53:53;;;;;;;21.25;10.70;;;3.30;99.90;;;;;;5017369;28;20128;-80
2021/01/26 03:56:25;;;;;;;20.85;12.00;;;3.40;99.90;;;;;;5015111;28;20104;-79
2021/01/26 03:59:06;;;;;;;26.90;12.27;;;3.30;99.90;;;;;;5019596;28;20081;-79
2021/01/26 04:01:38;;;;;;;24.48;12.30;;;3.30;99.90;;;;;;5019777;28;20105;-80
2021/01/26 04:04:15;;;;;;;25.40;13.40;;;3.20;99.90;;;;;;5017779;28;20077;-79
2021/01/26 04:06:46;;;;;;;25.08;13.13;;;3.20;99.90;;;;;;5017483;28;20499;-79
2021/01/26 04:09:16;;;;;;;23.73;12.73;;;3.10;99.90;;;;;;5020366;28;20335;-80
2021/01/26 04:11:50;;;;;;;22.70;10.63;;;3.10;99.90;;;;;;5019924;28;20100;-79
2021/01/26 04:14:22;;;;;;;22.70;10.95;;;3.10;99.90;;;;;;5019109;28;20085;-79
2021/01/26 04:16:52;;;;;;;21.15;12.35;;;3.10;99.90;;;;;;5020689;28;20085;-80
2021/01/26 04:19:23;;;;;;;25.30;10.50;;;3.10;99.90;;;;;;5020811;28;20081;-81
2021/01/26 04:21:50;;;;;;;24.55;12.18;;;3.10;99.90;;;;;;5020382;28;20045;-81
2021/01/26 04:24:17;;;;;;;23.58;11.30;;;3.10;99.90;;;;;;5019943;28;20081;-81
2021/01/26 04:26:47;;;;;;;22.75;11.25;;;3.10;99.90;;;;;;5019038;28;20137;-81
2021/01/26 04:29:14;;;;;;;20.45;10.25;;;3.10;99.90;;;;;;5020144;28;20081;-80
2021/01/26 04:31:40;;;;;;;21.48;10.95;;;3.10;99.90;;;;;;5019420;28;20050;-81
2021/01/26 04:34:08;;;;;;;23.67;11.15;;;3.10;99.90;;;;;;5022021;28;20076;-82
2021/01/26 04:36:34;;;;;;;20.52;10.43;;;3.10;99.90;;;;;;5024921;28;20050;-80
2021/01/26 04:39:01;;;;;;;29.55;11.45;;;3.20;99.90;;;;;;5024294;28;20490;-80
2021/01/26 04:41:38;;;;;;;16.10;8.55;;;3.10;99.90;;;;;;5023619;28;20089;-80
2021/01/26 04:44:38;;;;;;;17.08;8.35;;;3.20;99.90;;;;;;5022601;28;20192;-80
2021/01/26 04:47:12;;;;;;;21.15;11.18;;;3.20;99.90;;;;;;5008377;28;20073;-80
2021/01/26 04:49:47;;;;;;;19.40;10.25;;;3.20;99.90;;;;;;5023201;28;20078;-80
2021/01/26 04:52:24;;;;;;;17.02;9.73;;;3.20;99.90;;;;;;5025396;28;20053;-80
2021/01/26 04:55:01;;;;;;;20.25;10.45;;;3.20;99.90;;;;;;5026697;28;20493;-80
2021/01/26 04:57:44;;;;;;;19.92;9.77;;;3.30;99.90;;;;;;5025869;28;20046;-80
2021/01/26 05:00:20;;;;;;;;;;;3.30;99.90;;;;;;5023423;28;20137;-80
2021/01/26 05:03:03;;;;;;;20.98;9.57;;;3.30;99.90;;;;;;5027123;28;19957;-80
2021/01/26 05:05:34;;;;;;;27.33;10.38;;;3.30;99.90;;;;;;5026952;28;20092;-79
2021/01/26 05:08:06;;;;;;;18.42;9.10;;;3.30;99.90;;;;;;5030358;28;20053;-79
2021/01/26 05:10:38;;;;;;;19.40;9.68;;;3.20;99.90;;;;;;5042844;28;20053;-80
2021/01/26 05:16:33;;;;;;;18.35;8.57;;;3.30;99.90;;;;;;5042786;28;20136;-80
2021/01/26 05:26:04;;;;;;;31.05;12.25;;;3.20;99.90;;;;;;5042810;28;20135;-79
2021/01/26 05:36:12;;;;;;;29.05;13.25;;;3.10;99.90;;;;;;5035787;28;20072;-81
2021/01/26 05:38:39;;;;;;;24.83;12.73;;;3.10;99.90;;;;;;5043429;28;20073;-81
2021/01/26 05:41:08;;;;;;;25.73;12.43;;;3.20;99.90;;;;;;5043497;28;20049;-80
2021/01/26 05:43:36;;;;;;;28.52;14.70;;;3.20;99.90;;;;;;5042931;28;20077;-80
2021/01/26 05:46:07;;;;;;;33.90;15.25;;;3.20;99.90;;;;;;5042098;28;20084;-80
2021/01/26 05:48:48;;;;;;;28.65;13.20;;;3.20;99.90;;;;;;5042730;28;20096;-80
2021/01/26 05:51:20;;;;;;;32.45;13.35;;;3.20;99.90;;;;;;5042204;28;20111;-80
2021/01/26 05:53:53;;;;;;;27.63;10.57;;;3.10;99.90;;;;;;5044247;28;20535;-80
2021/01/26 05:56:22;;;;;;;22.42;11.90;;;3.10;99.90;;;;;;5041658;28;20077;-80
2021/01/26 05:58:48;;;;;;;21.75;11.52;;;3.10;99.90;;;;;;5044719;28;20077;-80
2021/01/26 06:01:29;;;;;;;26.45;12.70;;;3.10;99.90;;;;;;5045047;28;20050;-80
2021/01/26 06:04:10;;;;;;;25.33;12.57;;;3.00;99.90;;;;;;5037718;28;20128;-80
2021/01/26 06:06:52;;;;;;;23.90;12.02;;;2.90;99.90;;;;;;5038098;28;20049;-80
2021/01/26 06:09:35;;;;;;;25.25;12.40;;;2.80;99.90;;;;;;5039843;28;20168;-80
2021/01/26 06:12:17;;;;;;;25.25;10.90;;;2.80;99.90;;;;;;5039190;28;20100;-80
2021/01/26 06:14:46;;;;;;;29.65;12.80;;;2.80;99.90;;;;;;5040278;28;20092;-80
2021/01/26 06:17:18;;;;;;;31.95;14.43;;;2.80;99.90;;;;;;5047954;28;20107;-80
2021/01/26 06:19:46;;;;;;;27.52;13.40;;;2.80;99.90;;;;;;5053123;28;20053;-81
2021/01/26 06:22:24;;;;;;;25.98;13.45;;;2.90;99.90;;;;;;5054540;28;20057;-80
2021/01/26 06:24:53;;;;;;;25.15;13.27;;;2.90;99.90;;;;;;5053285;28;20029;-81
2021/01/26 06:27:40;;;;;;;30.80;14.68;;;2.80;99.90;;;;;;5053574;28;20037;-81
2021/01/26 06:30:21;;;;;;;27.40;14.10;;;2.80;99.90;;;;;;5044677;28;20089;-81
2021/01/26 06:33:10;;;;;;;29.75;13.30;;;2.80;99.90;;;;;;5042815;28;20084;-81
2021/01/26 06:35:43;;;;;;;30.13;16.77;;;2.90;99.90;;;;;;5047800;28;20064;-79
2021/01/26 06:38:28;;;;;;;30.88;16.45;;;2.90;99.90;;;;;;5062652;28;20072;-79
2021/01/26 06:41:09;;;;;;;26.63;13.35;;;2.90;99.90;;;;;;5062207;28;20049;-79
2021/01/26 06:44:02;;;;;;;32.65;14.70;;;2.90;99.90;;;;;;5063166;28;20081;-80
2021/01/26 06:46:42;;;;;;;33.15;15.63;;;2.90;99.90;;;;;;5062510;28;20076;-81
2021/01/26 06:49:21;;;;;;;26.25;14.48;;;2.80;99.90;;;;;;5063520;28;20079;-82
2021/01/26 06:52:05;;;;;;;31.95;16.23;;;2.90;99.90;;;;;;5062983;28;20087;-81
2021/01/26 06:54:50;;;;;;;26.65;13.80;;;2.90;99.90;;;;;;5061830;28;20049;-83
2021/01/26 06:57:54;;;;;;;27.33;13.43;;;2.90;99.90;;;;;;5059981;28;20068;-83
2021/01/26 07:00:53;;;;;;;;;;;3.00;99.90;;;;;;5018947;28;20049;-82
2021/01/26 07:03:57;;;;;;;20.33;10.73;;;3.00;99.90;;;;;;4996648;28;20296;-83
2021/01/26 07:06:49;;;;;;;28.00;12.90;;;3.10;99.90;;;;;;4997989;28;20078;-81
2021/01/26 07:09:28;;;;;;;25.20;10.27;;;3.00;99.90;;;;;;5053924;28;20318;-81
2021/01/26 07:12:33;;;;;;;25.02;11.32;;;3.00;99.90;;;;;;5059575;28;20128;-81
2021/01/26 07:15:12;;;;;;;29.77;14.27;;;2.90;99.90;;;;;;5060767;28;20103;-81
2021/01/26 07:17:54;;;;;;;22.80;12.77;;;2.80;99.90;;;;;;5061293;28;20398;-81
2021/01/26 07:20:28;;;;;;;24.70;14.07;;;2.70;99.90;;;;;;5060584;28;20080;-80
2021/01/26 07:23:10;;;;;;;32.83;14.32;;;2.60;99.90;;;;;;5060043;28;20094;-81
2021/01/26 07:25:59;;;;;;;37.50;17.40;;;2.60;99.90;;;;;;5060350;28;20052;-80
2021/01/26 07:28:43;;;;;;;32.70;18.23;;;2.60;99.90;;;;;;5068631;28;20053;-80
2021/01/26 07:31:14;;;;;;;32.80;18.08;;;2.60;99.90;;;;;;5062687;28;20076;-80
2021/01/26 07:33:47;;;;;;;39.75;18.83;;;2.60;99.90;;;;;;5058866;28;20072;-81
2021/01/26 07:36:22;;;;;;;38.33;18.63;;;2.70;99.90;;;;;;5058793;28;20172;-80
2021/01/26 07:39:05;;;;;;;28.35;15.10;;;2.80;99.90;;;;;;5059754;28;20088;-81
2021/01/26 07:41:38;;;;;;;33.63;17.33;;;2.90;99.90;;;;;;5072092;22;20073;-80
2021/01/26 07:44:13;;;;;;;39.25;19.23;;;2.90;99.90;;;;;;5043460;28;20195;-80
2021/01/26 07:46:45;;;;;;;27.90;15.05;;;2.90;99.90;;;;;;5033614;28;20142;-80
2021/01/26 07:49:18;;;;;;;30.20;15.85;;;2.90;99.90;;;;;;5034167;28;20079;-80
2021/01/26 07:51:52;;;;;;;36.35;14.15;;;2.90;99.90;;;;;;5033705;28;20109;-81
2021/01/26 07:54:26;;;;;;;29.85;16.80;;;3.00;99.90;;;;;;5035108;28;20116;-81
2021/01/26 07:56:54;;;;;;;33.90;14.80;;;3.00;99.90;;;;;;5034798;28;20085;-80
2021/01/26 07:59:25;;;;;;;28.90;15.45;;;3.00;99.90;;;;;;5033402;28;20680;-81
2021/01/26 08:01:55;;;;;;;28.45;15.07;;;2.90;99.90;;;;;;5034590;28;20124;-81
2021/01/26 08:04:23;;;;;;;30.92;14.82;;;3.00;99.90;;;;;;5033588;28;20128;-80
2021/01/26 08:06:53;;;;;;;24.50;13.10;;;3.00;99.90;;;;;;5034996;28;20077;-81
2021/01/26 08:09:24;;;;;;;23.17;12.70;;;3.00;99.90;;;;;;5039717;28;20068;-80
2021/01/26 08:11:58;;;;;;;21.92;12.23;;;3.00;99.90;;;;;;5039294;28;20129;-80
2021/01/26 08:14:34;;;;;;;24.52;12.75;;;2.90;99.90;;;;;;5041954;28;20105;-80
2021/01/26 08:17:05;;;;;;;20.70;11.02;;;3.00;99.90;;;;;;5041437;28;20053;-80
2021/01/26 08:19:35;;;;;;;20.13;11.60;;;3.00;99.90;;;;;;5038572;28;20061;-80
2021/01/26 08:22:17;;;;;;;21.60;12.45;;;3.00;99.90;;;;;;5042049;28;20041;-80
2021/01/26 08:24:45;;;;;;;27.83;14.77;;;3.10;99.90;;;;;;5039416;28;20049;-82
2021/01/26 08:27:50;;;;;;;27.35;11.25;;;3.20;99.90;;;;;;5040374;28;20083;-78
2021/01/26 08:30:36;;;;;;;32.22;14.52;;;3.20;99.90;;;;;;5037383;28;20512;-79
2021/01/26 08:33:08;;;;;;;25.17;10.48;;;3.10;99.90;;;;;;5023813;28;20099;-79
2021/01/26 08:35:44;;;;;;;22.97;11.67;;;3.10;99.90;;;;;;5037469;28;20084;-78
2021/01/26 08:38:31;;;;;;;23.75;10.73;;;3.10;99.90;;;;;;5039065;28;20399;-79
2021/01/26 08:41:04;;;;;;;20.98;11.43;;;3.10;99.90;;;;;;5039693;28;20127;-80
2021/01/26 08:43:48;;;;;;;18.27;9.68;;;3.10;99.90;;;;;;5038168;28;20128;-78
2021/01/26 08:46:36;;;;;;;25.05;11.63;;;3.10;99.90;;;;;;5035569;28;20138;-79
2021/01/26 08:49:16;;;;;;;19.90;10.48;;;3.00;99.90;;;;;;5034353;28;20096;-80
2021/01/26 08:51:43;;;;;;;19.23;10.50;;;3.00;99.90;;;;;;5055630;28;20049;-79
2021/01/26 08:54:10;;;;;;;18.40;10.85;;;3.00;99.90;;;;;;5056488;28;20053;-79
2021/01/26 08:56:39;;;;;;;21.35;10.50;;;3.10;99.90;;;;;;5056347;28;20179;-78
2021/01/26 08:59:09;;;;;;;20.15;11.80;;;3.10;99.90;;;;;;5057557;28;20146;-78
2021/01/26 09:01:41;;;;;;;22.60;12.25;;;3.10;99.90;;;;;;5055448;28;20077;-79
2021/01/26 09:04:39;;;;;;;26.63;13.00;;;3.10;99.90;;;;;;5056678;28;20447;-78
2021/01/26 09:07:06;;;;;;;25.65;11.63;;;3.20;99.90;;;;;;5029254;28;20057;-80
2021/01/26 09:09:51;;;;;;;27.50;10.95;;;3.20;99.90;;;;;;5058059;28;20685;-78
2021/01/26 09:12:23;;;;;;;26.05;10.98;;;3.10;99.90;;;;;;5056608;28;20103;-78
2021/01/26 09:14:54;;;;;;;23.70;11.02;;;3.20;99.90;;;;;;5055387;28;20088;-78
2021/01/26 09:17:25;;;;;;;26.48;12.15;;;3.30;99.90;;;;;;5055218;28;20091;-79
2021/01/26 09:19:55;;;;;;;19.83;11.75;;;3.30;99.90;;;;;;5052243;28;20152;-79
2021/01/26 09:22:25;;;;;;;23.10;11.80;;;3.30;99.90;;;;;;5056541;28;20132;-79
2021/01/26 09:24:59;;;;;;;17.88;10.85;;;3.30;99.90;;;;;;5052769;28;20155;-78
2021/01/26 09:27:28;;;;;;;20.63;12.32;;;3.30;99.90;;;;;;5055742;28;20568;-79
2021/01/26 09:30:09;;;;;;;21.35;11.45;;;3.30;99.90;;;;;;5056675;28;20048;-78
2021/01/26 09:32:37;;;;;;;21.98;12.32;;;3.30;99.90;;;;;;5050556;28;20544;-77
2021/01/26 09:35:27;;;;;;;22.25;10.98;;;3.30;99.90;;;;;;5064810;28;20111;-78
2021/01/26 09:38:05;;;;;;;21.60;12.57;;;3.30;99.90;;;;;;5072793;28;20052;-78
2021/01/26 09:40:32;;;;;;;18.15;12.85;;;3.30;99.90;;;;;;5064783;28;20045;-79
2021/01/26 09:43:11;;;;;;;17.67;11.68;;;3.30;99.90;;;;;;5058408;28;20087;-79
2021/01/26 09:45:39;;;;;;;21.38;13.40;;;3.30;99.90;;;;;;5060171;28;20103;-79
2021/01/26 09:48:07;;;;;;;20.25;11.10;;;3.40;99.90;;;;;;5058928;28;20086;-79
2021/01/26 09:50:34;;;;;;;22.98;11.35;;;3.40;99.90;;;;;;5058936;28;20071;-80
2021/01/26 09:53:04;;;;;;;21.85;11.80;;;3.50;99.90;;;;;;5057281;28;20083;-78
2021/01/26 09:55:31;;;;;;;21.80;12.93;;;3.50;99.90;;;;;;5055497;28;20103;-79
2021/01/26 09:57:58;;;;;;;21.05;11.00;;;3.50;99.90;;;;;;5055652;28;20080;-78
2021/01/26 10:00:28;;;;;;;28.15;14.55;;;3.50;99.90;;;;;;5053840;28;20513;-78
2021/01/26 10:02:58;;;;;;;24.20;13.15;;;3.60;99.90;;;;;;5059631;28;20077;-79
2021/01/26 10:05:26;;;;;;;27.77;15.20;;;3.60;99.90;;;;;;5044952;28;20512;-79
2021/01/26 10:08:12;;;;;;;24.40;15.15;;;3.70;99.90;;;;;;5040656;28;20053;-78
2021/01/26 10:10:40;;;;;;;25.85;14.43;;;3.70;99.90;;;;;;5037308;28;20053;-78
2021/01/26 10:13:27;;;;;;;25.75;14.65;;;3.80;99.90;;;;;;5039780;28;20045;-79
2021/01/26 10:15:55;;;;;;;24.42;14.38;;;3.80;99.90;;;;;;5070655;28;20072;-79
2021/01/26 10:18:24;;;;;;;25.92;16.98;;;3.90;99.90;;;;;;5077566;28;20149;-80
2021/01/26 10:21:00;;;;;;;25.60;14.35;;;3.90;99.90;;;;;;5077860;28;20048;-80
2021/01/26 10:23:32;;;;;;;25.83;15.65;;;4.00;99.90;;;;;;5077094;28;20110;-80
2021/01/26 10:26:23;;;;;;;19.90;10.48;;;4.00;99.90;;;;;;5077147;28;20131;-79
2021/01/26 10:29:19;;;;;;;25.27;11.50;;;4.10;99.90;;;;;;5073145;28;20060;-80
2021/01/26 10:31:48;;;;;;;13.52;8.73;;;4.10;99.90;;;;;;5076067;28;20213;-80
2021/01/26 10:34:36;;;;;;;21.10;12.10;;;4.00;99.90;;;;;;5076099;28;20135;-79
2021/01/26 10:37:29;;;;;;;25.92;11.13;;;3.90;99.90;;;;;;5075868;28;20056;-79
2021/01/26 10:40:17;;;;;;;15.82;9.75;;;3.90;99.90;;;;;;5076338;28;20049;-79
2021/01/26 10:42:55;;;;;;;16.75;9.57;;;4.00;99.90;;;;;;5074869;28;20076;-79
2021/01/26 10:45:38;;;;;;;21.73;11.60;;;4.00;99.90;;;;;;5076164;28;20504;-78
2021/01/26 10:48:11;;;;;;;21.20;10.27;;;4.10;99.90;;;;;;5075997;28;20532;-79
2021/01/26 10:50:39;;;;;;;16.48;10.05;;;4.20;99.90;;;;;;5075025;28;20144;-79
2021/01/26 10:53:05;;;;;;;21.20;11.20;;;4.20;99.90;;;;;;5058878;28;20079;-79
2021/01/26 10:55:33;;;;;;;17.13;10.70;;;4.20;99.90;;;;;;5057189;28;20124;-79
2021/01/26 10:57:59;;;;;;;24.95;10.93;;;4.30;99.90;;;;;;5058009;28;20053;-80
2021/01/26 11:00:26;;;;;;;15.70;10.32;;;4.30;99.90;;;;;;5056716;28;20528;-80
2021/01/26 11:02:53;;;;;;;22.95;11.32;;;4.30;99.90;;;;;;5067305;28;20436;-80
2021/01/26 11:05:20;;;;;;;18.95;11.32;;;4.30;99.90;;;;;;5076219;28;20087;-79
2021/01/26 11:07:48;;;;;;;22.85;11.32;;;4.30;99.90;;;;;;5073803;28;20080;-80
2021/01/26 11:10:16;;;;;;;19.65;11.23;;;4.30;99.90;;;;;;5077770;28;20060;-79
2021/01/26 11:12:42;;;;;;;19.90;10.10;;;4.40;99.90;;;;;;5063883;28;20045;-80
2021/01/26 11:15:12;;;;;;;14.18;8.88;;;4.40;99.90;;;;;;5068866;28;20453;-78
2021/01/26 11:17:38;;;;;;;22.75;11.55;;;4.50;99.90;;;;;;5087347;28;20052;-82
2021/01/26 11:20:06;;;;;;;18.63;10.75;;;4.50;99.90;;;;;;5083342;28;20055;-80
2021/01/26 11:22:33;;;;;;;25.58;10.35;;;4.60;99.90;;;;;;5072774;28;20037;-80
2021/01/26 11:25:01;;;;;;;15.73;11.43;;;4.60;99.90;;;;;;5066977;28;20138;-80
2021/01/26 11:27:27;;;;;;;16.23;9.38;;;4.70;99.90;;;;;;5071171;28;20036;-82
2021/01/26 11:29:54;;;;;;;21.67;10.57;;;4.70;99.90;;;;;;5065064;28;20044;-80
2021/01/26 11:32:20;;;;;;;25.02;10.82;;;4.70;99.90;;;;;;5058230;28;20044;-80
2021/01/26 11:34:47;;;;;;;17.73;9.10;;;4.70;99.90;;;;;;5057156;28;20390;-79
2021/01/26 11:37:13;;;;;;;17.73;10.40;;;4.60;99.90;;;;;;5067849;28;20455;-81
2021/01/26 11:39:40;;;;;;;20.98;9.90;;;4.70;99.90;;;;;;5085717;28;20060;-81
2021/01/26 11:42:07;;;;;;;20.08;9.20;;;4.80;99.90;;;;;;5085678;28;20055;-81
2021/01/26 11:44:34;;;;;;;16.05;9.70;;;4.90;99.90;;;;;;5083443;28;20052;-82
2021/01/26 11:50:23;;;;;;;16.83;9.77;;;4.90;99.90;;;;;;5082047;28;20096;-81
2021/01/26 11:52:50;;;;;;;21.40;10.57;;;4.80;99.90;;;;;;5086201;28;20059;-80
2021/01/26 11:55:19;;;;;;;25.10;10.30;;;4.80;99.90;;;;;;5085342;28;20052;-81
2021/01/26 11:57:47;;;;;;;20.23;9.35;;;4.90;99.90;;;;;;5085112;28;20052;-78
2021/01/26 12:00:16;;;;;;;17.77;10.48;;;4.80;99.90;;;;;;5090628;28;20048;-80
2021/01/26 12:02:42;;;;;;;19.25;10.30;;;4.70;99.90;;;;;;5089719;28;20059;-80
2021/01/26 12:05:11;;;;;;;21.95;9.98;;;4.70;99.90;;;;;;5089380;28;20137;-80
2021/01/26 12:07:37;;;;;;;14.90;8.98;;;4.60;99.90;;;;;;5087947;28;20087;-83
2021/01/26 12:10:05;;;;;;;23.55;10.50;;;4.60;99.90;;;;;;5088475;28;20053;-81
2021/01/26 12:12:31;;;;;;;27.17;12.95;;;4.60;99.90;;;;;;5086163;28;20311;-81
2021/01/26 12:14:59;;;;;;;19.70;10.25;;;4.60;99.90;;;;;;5086865;28;20044;-81
2021/01/26 12:17:25;;;;;;;16.98;10.55;;;4.70;99.90;;;;;;5087979;28;20040;-80
2021/01/26 12:19:52;;;;;;;15.75;9.30;;;4.70;99.90;;;;;;5086788;28;20041;-81
2021/01/26 12:22:18;;;;;;;21.48;9.38;;;4.70;99.90;;;;;;5085820;28;20056;-80
2021/01/26 12:24:45;;;;;;;18.65;10.18;;;4.70;99.90;;;;;;5085162;28;20417;-81
2021/01/26 12:27:11;;;;;;;20.10;10.68;;;4.70;99.90;;;;;;5085335;28;20044;-81
2021/01/26 12:29:37;;;;;;;23.20;10.93;;;4.60;99.90;;;;;;5075137;28;20041;-80
2021/01/26 12:32:05;;;;;;;18.05;10.68;;;4.60;99.90;;;;;;5065686;28;20041;-81
2021/01/26 12:34:32;;;;;;;25.30;11.02;;;4.70;99.90;;;;;;5063255;28;20061;-82
2021/01/26 12:36:59;;;;;;;19.80;9.65;;;4.70;99.90;;;;;;5062246;28;20057;-82
2021/01/26 12:39:26;;;;;;;17.48;10.05;;;4.80;99.90;;;;;;5061685;28;20475;-81
2021/01/26 12:41:52;;;;;;;17.08;9.60;;;4.80;99.90;;;;;;5063776;28;20049;-80
2021/01/26 12:44:19;;;;;;;21.08;10.30;;;4.90;99.90;;;;;;5059272;28;20091;-80
2021/01/26 12:46:45;;;;;;;14.32;9.40;;;5.00;99.90;;;;;;5058108;28;20049;-82
2021/01/26 12:49:13;;;;;;;14.23;9.35;;;5.00;99.90;;;;;;5059260;28;20045;-80
2021/01/26 12:51:39;;;;;;;22.55;9.45;;;5.10;99.90;;;;;;5060478;28;20049;-80
2021/01/26 12:54:06;;;;;;;15.93;8.80;;;5.20;99.90;;;;;;5060477;28;20076;-81
2021/01/26 12:56:33;;;;;;;21.77;9.40;;;5.30;99.90;;;;;;5064284;28;20077;-80
2021/01/26 12:58:59;;;;;;;17.15;8.63;;;5.30;99.90;;;;;;5064858;28;20079;-80
2021/01/26 13:01:26;;;;;;;18.38;9.70;;;5.30;99.90;;;;;;5065796;28;20078;-80
2021/01/26 13:03:52;;;;;;;22.00;9.55;;;5.30;99.90;;;;;;5064066;28;20076;-80
2021/01/26 13:06:20;;;;;;;17.13;8.73;;;5.30;99.90;;;;;;5063970;28;20045;-82
2021/01/26 13:08:46;;;;;;;19.38;9.00;;;5.40;99.90;;;;;;5064315;28;20049;-78
2021/01/26 13:11:13;;;;;;;17.33;8.60;;;5.40;99.90;;;;;;5062604;28;20453;-80
2021/01/26 13:13:39;;;;;;;19.05;8.05;;;5.40;99.90;;;;;;5058745;28;20475;-80
2021/01/26 13:16:06;;;;;;;17.80;7.47;;;5.40;99.90;;;;;;5057761;28;20076;-82
2021/01/26 13:18:32;;;;;;;14.32;7.88;;;5.30;99.90;;;;;;5061693;28;20126;-79
2021/01/26 13:20:58;;;;;;;17.15;7.88;;;5.30;99.90;;;;;;5062130;28;20140;-79
2021/01/26 13:23:26;;;;;;;22.70;9.85;;;5.20;99.90;;;;;;5056072;28;20132;-78
2021/01/26 13:25:52;;;;;;;17.42;7.38;;;5.20;99.90;;;;;;5060426;28;20049;-79
2021/01/26 13:28:19;;;;;;;21.50;8.52;;;5.20;99.90;;;;;;5060233;28;20049;-79
2021/01/26 13:30:45;;;;;;;16.27;8.18;;;5.20;99.90;;;;;;5057581;28;20091;-79
2021/01/26 13:33:12;;;;;;;19.85;8.38;;;5.20;99.90;;;;;;5058494;28;20084;-78